Time;durP1;ratioP1;P1;durP2;ratioP2;P2;SDS_P1;SDS_P2;PMS_P1;PMS_P2;Temp;Humidity;BMP_temperature;BMP_pressure;BME280_temperature;BME280_humidity;BME280_pressure;Samples;Min_cycle;Max_cycle;Signal;HPM_P1;HPM_P2
2023/07/06 00:00:26;;;;;;;0.52;0.52;;;;;;;;;;10295761;28;20239;-74
2023/07/06 00:05:27;;;;;;;0.60;0.60;;;;;;;;;;10312368;28;20213;-74
2023/07/06 00:10:31;;;;;;;1.98;0.60;;;;;;;;;;10293084;28;21287;-74
2023/07/06 00:15:35;;;;;;;0.60;0.60;;;;;;;;;;10299862;28;20216;-74
2023/07/06 00:20:37;;;;;;;0.50;0.50;;;;;;;;;;10294526;28;20239;-75
2023/07/06 00:25:42;;;;;;;0.50;0.50;;;;;;;;;;10296168;28;20259;-74
2023/07/06 00:35:47;;;;;;;0.40;0.40;;;;;;;;;;10296365;28;20223;-75
2023/07/06 00:40:49;;;;;;;0.50;0.50;;;;;;;;;;10296558;28;20228;-74
2023/07/06 00:45:56;;;;;;;1.83;0.55;;;;;;;;;;10312453;28;20212;-74
2023/07/06 00:50:59;;;;;;;0.45;0.43;;;;;;;;;;10295693;28;20233;-74
2023/07/06 00:56:00;;;;;;;0.40;0.40;;;;;;;;;;10292265;28;20213;-74
2023/07/06 01:01:04;;;;;;;0.60;0.60;;;;;;;;;;10299767;28;20821;-75
2023/07/06 01:06:05;;;;;;;0.50;0.50;;;;;;;;;;10295330;28;20225;-74
2023/07/06 01:11:08;;;;;;;0.50;0.50;;;;;;;;;;10295994;28;21448;-75
2023/07/06 01:16:18;;;;;;;0.75;0.50;;;;;;;;;;10290817;28;20216;-74
2023/07/06 01:21:40;;;;;;;0.93;0.50;;;;;;;;;;10299551;28;20320;-76
2023/07/06 01:26:57;;;;;;;2.38;0.50;;;;;;;;;;10263822;28;20217;-74
2023/07/06 01:31:59;;;;;;;0.63;0.55;;;;;;;;;;10287509;28;20232;-74
2023/07/06 01:37:02;;;;;;;0.30;0.30;;;;;;;;;;10295067;28;20708;-73
2023/07/06 01:42:12;;;;;;;2.47;0.55;;;;;;;;;;10296597;28;20321;-74
2023/07/06 01:47:15;;;;;;;0.55;0.55;;;;;;;;;;10296483;28;21750;-76
2023/07/06 01:52:22;;;;;;;0.40;0.40;;;;;;;;;;10291813;28;20576;-75
2023/07/06 01:57:28;;;;;;;0.40;0.40;;;;;;;;;;10296897;28;20239;-75
2023/07/06 02:02:30;;;;;;;0.40;0.40;;;;;;;;;;10305280;28;20217;-74
2023/07/06 02:07:32;;;;;;;1.52;0.50;;;;;;;;;;10288722;28;20237;-74
2023/07/06 02:12:33;;;;;;;0.63;0.63;;;;;;;;;;10307696;28;20240;-74
2023/07/06 02:17:34;;;;;;;0.40;0.40;;;;;;;;;;10295622;28;20246;-74
2023/07/06 02:22:35;;;;;;;0.52;0.52;;;;;;;;;;10295136;28;20233;-75
2023/07/06 02:27:36;;;;;;;0.60;0.60;;;;;;;;;;10292551;28;20223;-74
2023/07/06 02:32:39;;;;;;;0.50;0.40;;;;;;;;;;10304386;28;20252;-75
2023/07/06 02:37:40;;;;;;;1.70;0.65;;;;;;;;;;10306844;28;20226;-76
2023/07/06 02:42:41;;;;;;;0.52;0.52;;;;;;;;;;10293069;28;20310;-74
2023/07/06 02:47:42;;;;;;;0.65;0.65;;;;;;;;;;10276919;28;20213;-76
2023/07/06 02:52:44;;;;;;;0.60;0.60;;;;;;;;;;10295118;28;20270;-74
2023/07/06 02:57:48;;;;;;;1.67;0.73;;;;;;;;;;10295422;28;20578;-74
2023/07/06 03:02:49;;;;;;;0.65;0.65;;;;;;;;;;10287615;28;20348;-74
2023/07/06 03:07:54;;;;;;;1.63;0.70;;;;;;;;;;10292337;28;20232;-73
2023/07/06 03:12:57;;;;;;;0.60;0.55;;;;;;;;;;10305284;28;20212;-74
2023/07/06 03:17:58;;;;;;;0.77;0.77;;;;;;;;;;10295892;28;20220;-74
2023/07/06 03:22:59;;;;;;;0.65;0.65;;;;;;;;;;10298768;28;20271;-74
2023/07/06 03:28:00;;;;;;;0.55;0.55;;;;;;;;;;10311568;28;20629;-74
2023/07/06 03:33:01;;;;;;;3.53;0.88;;;;;;;;;;10296691;28;20229;-75
2023/07/06 03:38:02;;;;;;;0.57;0.57;;;;;;;;;;10296561;28;20249;-74
2023/07/06 03:43:03;;;;;;;0.75;0.75;;;;;;;;;;10301002;28;20236;-74
2023/07/06 03:48:05;;;;;;;0.80;0.80;;;;;;;;;;10283139;28;20312;-75
2023/07/06 03:53:07;;;;;;;0.50;0.50;;;;;;;;;;10300220;28;20212;-74
2023/07/06 03:58:08;;;;;;;2.05;0.93;;;;;;;;;;10301518;28;20736;-75
2023/07/06 04:03:09;;;;;;;0.63;0.55;;;;;;;;;;10292919;28;20244;-74
2023/07/06 04:08:12;;;;;;;0.80;0.80;;;;;;;;;;10308008;28;20229;-74
2023/07/06 04:13:16;;;;;;;0.93;0.57;;;;;;;;;;10298078;28;20295;-75
2023/07/06 04:18:17;;;;;;;0.88;0.88;;;;;;;;;;10295886;28;20211;-75
2023/07/06 04:23:18;;;;;;;2.38;0.93;;;;;;;;;;10297576;28;20224;-75
2023/07/06 04:28:19;;;;;;;1.13;0.70;;;;;;;;;;10295714;28;20224;-75
2023/07/06 04:33:20;;;;;;;2.67;0.77;;;;;;;;;;10296543;28;20307;-74
2023/07/06 04:38:22;;;;;;;0.80;0.80;;;;;;;;;;10293927;28;20212;-76
2023/07/06 04:43:26;;;;;;;1.45;0.60;;;;;;;;;;10294308;28;20308;-77
2023/07/06 04:48:27;;;;;;;0.70;0.70;;;;;;;;;;10284190;28;20607;-75
2023/07/06 04:53:28;;;;;;;0.65;0.65;;;;;;;;;;10294528;28;20213;-76
2023/07/06 04:58:30;;;;;;;0.85;0.85;;;;;;;;;;10292341;28;20225;-76
2023/07/06 05:03:31;;;;;;;1.17;1.00;;;;;;;;;;10296585;28;20231;-76
2023/07/06 05:08:32;;;;;;;1.13;0.80;;;;;;;;;;10290179;28;20762;-76
2023/07/06 05:13:33;;;;;;;1.00;0.98;;;;;;;;;;10274396;28;20316;-77
2023/07/06 05:18:34;;;;;;;0.80;0.80;;;;;;;;;;10293420;28;20225;-76
2023/07/06 05:23:35;;;;;;;1.02;1.02;;;;;;;;;;10257261;28;20229;-76
2023/07/06 05:28:36;;;;;;;2.05;1.20;;;;;;;;;;10272224;28;20208;-76
2023/07/06 05:33:38;;;;;;;1.10;1.10;;;;;;;;;;10299856;28;20232;-75
2023/07/06 05:38:39;;;;;;;1.67;1.38;;;;;;;;;;10292032;28;20248;-75
2023/07/06 05:43:40;;;;;;;1.88;1.55;;;;;;;;;;10269566;28;20326;-76
2023/07/06 05:48:41;;;;;;;1.00;1.00;;;;;;;;;;10271449;28;20351;-75
2023/07/06 05:53:42;;;;;;;1.40;1.15;;;;;;;;;;10284743;28;20217;-76
2023/07/06 05:58:44;;;;;;;1.40;1.33;;;;;;;;;;10283008;28;20217;-77
2023/07/06 06:03:45;;;;;;;1.10;1.10;;;;;;;;;;10277523;28;20228;-76
2023/07/06 06:08:46;;;;;;;1.83;1.10;;;;;;;;;;10265007;28;20578;-77
2023/07/06 06:13:49;;;;;;;0.90;0.90;;;;;;;;;;10285261;28;20284;-78
2023/07/06 06:18:50;;;;;;;1.58;1.35;;;;;;;;;;10296605;28;20225;-76
2023/07/06 06:23:53;;;;;;;1.38;1.00;;;;;;;;;;10294971;28;20240;-76
2023/07/06 06:28:55;;;;;;;1.08;1.08;;;;;;;;;;10266270;28;20754;-76
2023/07/06 06:33:56;;;;;;;3.90;0.90;;;;;;;;;;10276938;28;20208;-78
2023/07/06 06:38:57;;;;;;;0.90;0.90;;;;;;;;;;10300143;28;20221;-77
2023/07/06 06:43:58;;;;;;;1.52;0.80;;;;;;;;;;10295960;28;20655;-77
2023/07/06 06:49:00;;;;;;;0.57;0.57;;;;;;;;;;10281235;28;20216;-77
2023/07/06 06:54:01;;;;;;;0.70;0.70;;;;;;;;;;10286805;28;20220;-77
2023/07/06 06:59:02;;;;;;;2.47;0.50;;;;;;;;;;10290107;28;20217;-77
2023/07/06 07:04:03;;;;;;;0.82;0.82;;;;;;;;;;10282591;28;20231;-77
2023/07/06 07:09:04;;;;;;;0.80;0.80;;;;;;;;;;10304241;28;20231;-77
2023/07/06 07:14:09;;;;;;;0.70;0.70;;;;;;;;;;10300582;28;20216;-77
2023/07/06 07:19:10;;;;;;;0.70;0.70;;;;;;;;;;10287978;28;20694;-75
2023/07/06 07:24:11;;;;;;;1.58;0.63;;;;;;;;;;10289010;28;21016;-74
2023/07/06 07:29:13;;;;;;;0.47;0.47;;;;;;;;;;10300707;28;20256;-74
2023/07/06 07:34:14;;;;;;;0.60;0.60;;;;;;;;;;10278384;28;20224;-74
2023/07/06 07:39:15;;;;;;;0.75;0.40;;;;;;;;;;10286465;28;20240;-74
2023/07/06 07:44:16;;;;;;;1.95;0.65;;;;;;;;;;10291867;28;20226;-74
2023/07/06 07:49:17;;;;;;;0.70;0.40;;;;;;;;;;10268515;28;20717;-74
2023/07/06 07:54:19;;;;;;;0.50;0.50;;;;;;;;;;10300285;28;20220;-73
2023/07/06 07:59:23;;;;;;;0.50;0.50;;;;;;;;;;10280507;28;20704;-74
2023/07/06 08:04:24;;;;;;;0.30;0.30;;;;;;;;;;10276358;28;20356;-73
2023/07/06 08:09:26;;;;;;;1.95;0.45;;;;;;;;;;10289222;28;20307;-74
2023/07/06 08:14:38;;;;;;;0.38;0.38;;;;;;;;;;10291996;28;20213;-79
2023/07/06 08:19:40;;;;;;;0.60;0.60;;;;;;;;;;10299623;28;20636;-76
2023/07/06 08:24:41;;;;;;;0.50;0.50;;;;;;;;;;10309437;28;20584;-76
2023/07/06 08:29:44;;;;;;;1.88;0.40;;;;;;;;;;10303716;28;20228;-77
2023/07/06 08:34:47;;;;;;;0.60;0.60;;;;;;;;;;10309669;28;20220;-75
2023/07/06 08:39:48;;;;;;;0.40;0.40;;;;;;;;;;10306128;28;20271;-78
2023/07/06 08:44:52;;;;;;;0.52;0.52;;;;;;;;;;10307617;28;20247;-76
2023/07/06 08:49:53;;;;;;;0.40;0.40;;;;;;;;;;10307987;28;20209;-75
2023/07/06 08:54:54;;;;;;;0.52;0.52;;;;;;;;;;10299441;28;20215;-77
2023/07/06 08:59:55;;;;;;;0.40;0.40;;;;;;;;;;10301761;28;20260;-76
2023/07/06 09:04:59;;;;;;;0.73;0.50;;;;;;;;;;10297437;28;20751;-74
2023/07/06 09:10:00;;;;;;;0.43;0.40;;;;;;;;;;10298219;28;20248;-74
2023/07/06 09:15:02;;;;;;;0.40;0.40;;;;;;;;;;10309289;28;20215;-79
2023/07/06 09:20:03;;;;;;;0.50;0.50;;;;;;;;;;10296774;28;20225;-75
2023/07/06 09:25:05;;;;;;;0.60;0.60;;;;;;;;;;10293804;28;20263;-74
2023/07/06 09:30:07;;;;;;;0.60;0.60;;;;;;;;;;10296790;28;20217;-75
2023/07/06 09:35:12;;;;;;;0.30;0.30;;;;;;;;;;10294471;28;20189;-74
2023/07/06 09:40:14;;;;;;;0.63;0.63;;;;;;;;;;10294736;28;20797;-73
2023/07/06 09:45:24;;;;;;;0.75;0.50;;;;;;;;;;10287851;28;20277;-76
2023/07/06 09:50:35;;;;;;;0.32;0.32;;;;;;;;;;10277574;28;20232;-75
2023/07/06 09:55:36;;;;;;;0.40;0.40;;;;;;;;;;10290601;28;21215;-75
2023/07/06 10:00:42;;;;;;;3.55;0.70;;;;;;;;;;10291951;28;20223;-75
2023/07/06 10:05:51;;;;;;;0.30;0.30;;;;;;;;;;10300146;28;20219;-75
2023/07/06 10:10:58;;;;;;;0.40;0.40;;;;;;;;;;10282420;28;20224;-76
2023/07/06 10:16:08;;;;;;;0.47;0.47;;;;;;;;;;10300887;28;20212;-76
2023/07/06 10:21:17;;;;;;;0.40;0.40;;;;;;;;;;10300560;28;20394;-77
2023/07/06 10:26:26;;;;;;;0.30;0.30;;;;;;;;;;10261420;28;20253;-76
2023/07/06 10:31:33;;;;;;;0.38;0.38;;;;;;;;;;10287358;28;20220;-76
2023/07/06 10:36:35;;;;;;;0.47;0.47;;;;;;;;;;10286618;28;20221;-79
2023/07/06 10:41:39;;;;;;;0.30;0.30;;;;;;;;;;10260463;28;20212;-76
2023/07/06 10:46:53;;;;;;;0.47;0.47;;;;;;;;;;10286368;28;20239;-76
2023/07/06 10:51:56;;;;;;;0.52;0.52;;;;;;;;;;10256002;28;20292;-76
2023/07/06 10:57:00;;;;;;;0.32;0.32;;;;;;;;;;10292206;28;20280;-76
2023/07/06 11:02:20;;;;;;;0.85;0.32;;;;;;;;;;10294003;28;20204;-76
2023/07/06 11:07:38;;;;;;;0.50;0.40;;;;;;;;;;10271020;28;20225;-77
2023/07/06 11:12:52;;;;;;;0.60;0.43;;;;;;;;;;10287498;28;20225;-76
2023/07/06 11:17:55;;;;;;;0.50;0.50;;;;;;;;;;10281851;28;20598;-76
2023/07/06 11:23:00;;;;;;;0.50;0.50;;;;;;;;;;10277462;28;20224;-76
2023/07/06 11:28:05;;;;;;;0.77;0.30;;;;;;;;;;10279278;28;20221;-76
2023/07/06 11:33:25;;;;;;;0.30;0.30;;;;;;;;;;10271673;28;20263;-75
2023/07/06 11:38:29;;;;;;;0.30;0.30;;;;;;;;;;10261178;28;20228;-77
2023/07/06 11:43:34;;;;;;;0.30;0.30;;;;;;;;;;10282613;28;20723;-76
2023/07/06 11:48:49;;;;;;;0.28;0.28;;;;;;;;;;10299221;28;20310;-75
2023/07/06 11:58:57;;;;;;;0.75;0.40;;;;;;;;;;10303312;28;20283;-76
2023/07/06 12:04:02;;;;;;;1.10;0.43;;;;;;;;;;10292629;28;20276;-77
2023/07/06 12:09:07;;;;;;;1.27;0.60;;;;;;;;;;10300265;28;20279;-77
2023/07/06 12:14:20;;;;;;;0.20;0.20;;;;;;;;;;10304508;28;20217;-77
2023/07/06 12:19:21;;;;;;;0.30;0.30;;;;;;;;;;10298066;28;20256;-75
2023/07/06 12:24:24;;;;;;;0.30;0.30;;;;;;;;;;10305726;28;20229;-76
2023/07/06 12:29:29;;;;;;;1.75;0.40;;;;;;;;;;10289798;28;20370;-76
2023/07/06 12:34:31;;;;;;;0.20;0.20;;;;;;;;;;10297499;28;20307;-76
2023/07/06 12:39:37;;;;;;;0.30;0.30;;;;;;;;;;10308029;28;20224;-76
2023/07/06 12:44:40;;;;;;;1.55;0.40;;;;;;;;;;10288423;28;20992;-75
2023/07/06 12:49:49;;;;;;;0.40;0.40;;;;;;;;;;10303775;28;20216;-75
2023/07/06 12:54:52;;;;;;;0.30;0.30;;;;;;;;;;10280773;28;20548;-75
2023/07/06 13:00:27;;;;;;;0.30;0.30;;;;;;;;;;10296841;28;20252;-77
2023/07/06 13:05:33;;;;;;;0.30;0.30;;;;;;;;;;10236214;28;20855;-75
2023/07/06 13:10:36;;;;;;;1.10;0.63;;;;;;;;;;10302790;28;20255;-75
2023/07/06 13:15:39;;;;;;;0.40;0.30;;;;;;;;;;10286763;28;20720;-80
2023/07/06 13:20:44;;;;;;;1.00;0.40;;;;;;;;;;10271882;28;22107;-76
2023/07/06 13:25:49;;;;;;;0.85;0.40;;;;;;;;;;10281998;28;20228;-75
2023/07/06 13:30:50;;;;;;;0.30;0.30;;;;;;;;;;10301138;28;20367;-75
2023/07/06 13:35:51;;;;;;;0.35;0.35;;;;;;;;;;10283490;28;20314;-75
2023/07/06 13:40:52;;;;;;;0.30;0.30;;;;;;;;;;10278490;28;20528;-75
2023/07/06 13:45:53;;;;;;;0.20;0.20;;;;;;;;;;10282803;28;20228;-76
2023/07/06 13:50:54;;;;;;;0.38;0.38;;;;;;;;;;10281299;28;20225;-75
2023/07/06 13:55:56;;;;;;;0.50;0.35;;;;;;;;;;10278599;28;20232;-75
2023/07/06 14:00:57;;;;;;;0.43;0.30;;;;;;;;;;10288395;28;20320;-75
2023/07/06 14:05:58;;;;;;;0.20;0.20;;;;;;;;;;10281637;28;20271;-76
2023/07/06 14:11:02;;;;;;;0.40;0.40;;;;;;;;;;10278464;28;20231;-78
2023/07/06 14:16:04;;;;;;;0.32;0.32;;;;;;;;;;10266167;28;20221;-75
2023/07/06 14:21:05;;;;;;;0.20;0.20;;;;;;;;;;10295563;28;20228;-76
2023/07/06 14:26:06;;;;;;;0.57;0.40;;;;;;;;;;10293568;28;20985;-76
2023/07/06 14:31:12;;;;;;;0.30;0.30;;;;;;;;;;10273797;28;20703;-75
2023/07/06 14:36:13;;;;;;;1.35;0.30;;;;;;;;;;10288530;28;20212;-75
2023/07/06 14:41:15;;;;;;;0.30;0.30;;;;;;;;;;10277837;28;20308;-77
2023/07/06 14:46:16;;;;;;;0.30;0.30;;;;;;;;;;10285443;28;20582;-76
2023/07/06 14:51:18;;;;;;;0.30;0.30;;;;;;;;;;10271085;28;20310;-76
2023/07/06 14:56:21;;;;;;;0.30;0.30;;;;;;;;;;10287950;28;20221;-76
2023/07/06 15:01:22;;;;;;;0.40;0.40;;;;;;;;;;10289722;28;20217;-75
2023/07/06 15:06:23;;;;;;;1.45;0.38;;;;;;;;;;10276206;28;21444;-77
2023/07/06 15:11:24;;;;;;;0.20;0.20;;;;;;;;;;10274559;28;20698;-76
2023/07/06 15:16:25;;;;;;;0.30;0.30;;;;;;;;;;10295932;28;20220;-76
2023/07/06 15:21:26;;;;;;;0.40;0.40;;;;;;;;;;10270518;28;20710;-77
2023/07/06 15:26:27;;;;;;;0.40;0.40;;;;;;;;;;10265505;28;20217;-76
2023/07/06 15:31:28;;;;;;;0.20;0.20;;;;;;;;;;10295248;28;20267;-77
2023/07/06 15:36:30;;;;;;;0.35;0.20;;;;;;;;;;10272416;28;20284;-76
2023/07/06 15:41:34;;;;;;;0.22;0.22;;;;;;;;;;10302751;28;20256;-76
2023/07/06 15:46:35;;;;;;;0.30;0.30;;;;;;;;;;10288497;28;20221;-76
2023/07/06 15:51:36;;;;;;;0.60;0.30;;;;;;;;;;10304508;28;20726;-77
2023/07/06 15:56:37;;;;;;;0.75;0.20;;;;;;;;;;10279898;28;20243;-80
2023/07/06 16:01:39;;;;;;;0.25;0.25;;;;;;;;;;10282684;28;20213;-76
2023/07/06 16:06:40;;;;;;;1.25;0.30;;;;;;;;;;10266555;28;20249;-77
2023/07/06 16:11:41;;;;;;;0.20;0.20;;;;;;;;;;10293166;28;20305;-77
2023/07/06 16:16:42;;;;;;;0.40;0.28;;;;;;;;;;10279866;28;20228;-77
2023/07/06 16:21:43;;;;;;;0.80;0.22;;;;;;;;;;10260582;28;20228;-76
2023/07/06 16:26:45;;;;;;;0.35;0.35;;;;;;;;;;10280532;28;20220;-76
2023/07/06 16:31:46;;;;;;;0.40;0.40;;;;;;;;;;10264556;28;20221;-75
2023/07/06 16:36:47;;;;;;;0.30;0.30;;;;;;;;;;10277397;28;20213;-76
2023/07/06 16:41:48;;;;;;;1.38;0.20;;;;;;;;;;10283870;28;20220;-75
2023/07/06 16:46:49;;;;;;;1.23;0.50;;;;;;;;;;10289439;28;20217;-77
2023/07/06 16:51:50;;;;;;;0.50;0.50;;;;;;;;;;10299026;28;21172;-76
2023/07/06 16:56:51;;;;;;;1.45;0.25;;;;;;;;;;10295962;28;20216;-76
2023/07/06 17:01:52;;;;;;;0.22;0.20;;;;;;;;;;10293127;28;20683;-74
2023/07/06 17:06:53;;;;;;;0.30;0.30;;;;;;;;;;10284613;28;20980;-77
2023/07/06 17:11:54;;;;;;;0.30;0.30;;;;;;;;;;10273392;28;20255;-75
2023/07/06 17:16:55;;;;;;;0.30;0.30;;;;;;;;;;10289252;28;20212;-75
2023/07/06 17:21:56;;;;;;;0.30;0.30;;;;;;;;;;10264577;28;20235;-76
2023/07/06 17:26:57;;;;;;;0.63;0.43;;;;;;;;;;10289489;28;20225;-75
2023/07/06 17:31:58;;;;;;;0.30;0.30;;;;;;;;;;10280089;28;20228;-76
2023/07/06 17:36:59;;;;;;;0.30;0.30;;;;;;;;;;10276440;28;20220;-78
2023/07/06 17:42:00;;;;;;;0.20;0.20;;;;;;;;;;10290771;28;20639;-74
2023/07/06 17:47:01;;;;;;;0.45;0.40;;;;;;;;;;10292245;28;20213;-76
2023/07/06 17:52:02;;;;;;;0.38;0.38;;;;;;;;;;10264975;28;20982;-76
2023/07/06 17:57:04;;;;;;;1.98;0.50;;;;;;;;;;10286223;28;20220;-78
2023/07/06 18:02:06;;;;;;;0.65;0.45;;;;;;;;;;10274881;28;20221;-77
2023/07/06 18:07:07;;;;;;;0.30;0.30;;;;;;;;;;10266470;28;20342;-78
2023/07/06 18:12:08;;;;;;;0.40;0.40;;;;;;;;;;10294045;28;20224;-78
2023/07/06 18:17:09;;;;;;;0.73;0.30;;;;;;;;;;10281260;28;20225;-78
2023/07/06 18:22:10;;;;;;;1.33;0.40;;;;;;;;;;10280893;28;20221;-78
2023/07/06 18:27:15;;;;;;;0.43;0.43;;;;;;;;;;10273864;28;20205;-75
2023/07/06 18:32:16;;;;;;;0.28;0.28;;;;;;;;;;10301290;28;20221;-78
2023/07/06 18:37:19;;;;;;;0.30;0.30;;;;;;;;;;10277335;28;20589;-76
2023/07/06 18:42:20;;;;;;;0.70;0.30;;;;;;;;;;10304481;28;20220;-76
2023/07/06 18:47:21;;;;;;;0.30;0.30;;;;;;;;;;10287291;28;20236;-75
2023/07/06 18:52:22;;;;;;;0.40;0.40;;;;;;;;;;10273465;28;20248;-76
2023/07/06 18:57:24;;;;;;;0.40;0.40;;;;;;;;;;10278818;28;20213;-77
2023/07/06 19:02:25;;;;;;;1.20;0.30;;;;;;;;;;10268394;28;20220;-79
2023/07/06 19:07:26;;;;;;;1.27;0.43;;;;;;;;;;10281456;28;20780;-79
2023/07/06 19:12:27;;;;;;;0.40;0.40;;;;;;;;;;10275742;28;20252;-76
2023/07/06 19:17:29;;;;;;;4.95;2.83;;;;;;;;;;10276134;28;20295;-78
2023/07/06 19:22:30;;;;;;;13.73;5.57;;;;;;;;;;10287745;28;20213;-76
2023/07/06 19:27:32;;;;;;;15.27;5.47;;;;;;;;;;10287315;28;20263;-77
2023/07/06 19:32:33;;;;;;;19.67;7.35;;;;;;;;;;10289751;28;20221;-79
2023/07/06 19:37:34;;;;;;;12.88;5.47;;;;;;;;;;10289016;28;20251;-78
2023/07/06 19:42:35;;;;;;;11.00;5.95;;;;;;;;;;10273054;28;20216;-77
2023/07/06 19:47:36;;;;;;;20.33;4.50;;;;;;;;;;10287036;28;20303;-79
2023/07/06 19:52:39;;;;;;;2.30;1.98;;;;;;;;;;10265601;28;20212;-78
2023/07/06 19:57:40;;;;;;;3.35;2.10;;;;;;;;;;10279976;28;20902;-76
2023/07/06 20:02:41;;;;;;;0.50;0.50;;;;;;;;;;10274006;28;20213;-76
2023/07/06 20:07:42;;;;;;;0.52;0.47;;;;;;;;;;10303486;28;20248;-76
2023/07/06 20:12:43;;;;;;;0.65;0.43;;;;;;;;;;10303115;28;20221;-76
2023/07/06 20:17:44;;;;;;;0.40;0.40;;;;;;;;;;10286504;28;20331;-76
2023/07/06 20:22:45;;;;;;;0.30;0.30;;;;;;;;;;10303634;28;20227;-76
2023/07/06 20:27:46;;;;;;;0.40;0.40;;;;;;;;;;10287475;28;20275;-77
2023/07/06 20:32:47;;;;;;;0.90;0.50;;;;;;;;;;10284852;28;20212;-76
2023/07/06 20:37:48;;;;;;;2.45;0.77;;;;;;;;;;10287894;28;20212;-76
2023/07/06 20:42:49;;;;;;;0.50;0.50;;;;;;;;;;10291934;28;20765;-75
2023/07/06 20:47:50;;;;;;;0.50;0.50;;;;;;;;;;10282799;28;20216;-76
2023/07/06 20:52:51;;;;;;;0.50;0.50;;;;;;;;;;10300139;28;20468;-76
2023/07/06 20:57:52;;;;;;;0.40;0.40;;;;;;;;;;10304505;28;20666;-76
2023/07/06 21:02:53;;;;;;;0.55;0.55;;;;;;;;;;10287391;28;20295;-75
2023/07/06 21:07:55;;;;;;;2.50;0.68;;;;;;;;;;10280248;28;20451;-75
2023/07/06 21:12:57;;;;;;;0.60;0.60;;;;;;;;;;10297151;28;20710;-75
2023/07/06 21:17:58;;;;;;;0.47;0.47;;;;;;;;;;10286192;28;20208;-75
2023/07/06 21:22:59;;;;;;;0.82;0.82;;;;;;;;;;10299145;28;20221;-76
2023/07/06 21:28:00;;;;;;;1.92;0.60;;;;;;;;;;10301456;28;20857;-75
2023/07/06 21:33:01;;;;;;;0.80;0.80;;;;;;;;;;10285289;28;20213;-76
2023/07/06 21:38:02;;;;;;;1.95;0.65;;;;;;;;;;10298059;28;20714;-77
2023/07/06 21:43:03;;;;;;;0.50;0.50;;;;;;;;;;10289215;28;20221;-76
2023/07/06 21:48:04;;;;;;;0.50;0.50;;;;;;;;;;10300492;28;20209;-76
2023/07/06 21:53:05;;;;;;;0.40;0.40;;;;;;;;;;10297420;28;20214;-74
2023/07/06 21:58:06;;;;;;;1.45;0.63;;;;;;;;;;10299128;28;20244;-76
2023/07/06 22:03:07;;;;;;;0.68;0.63;;;;;;;;;;10286022;28;20691;-76
2023/07/06 22:08:08;;;;;;;0.50;0.50;;;;;;;;;;10274199;28;20858;-76
2023/07/06 22:13:09;;;;;;;0.40;0.40;;;;;;;;;;10280756;28;20216;-76
2023/07/06 22:18:10;;;;;;;0.68;0.50;;;;;;;;;;10276609;28;20215;-75
2023/07/06 22:23:11;;;;;;;1.55;0.57;;;;;;;;;;10282090;28;20225;-75
2023/07/06 22:28:13;;;;;;;0.70;0.70;;;;;;;;;;10283823;28;20880;-76
2023/07/06 22:33:14;;;;;;;0.60;0.60;;;;;;;;;;10295725;28;20208;-75
2023/07/06 22:38:16;;;;;;;0.95;0.60;;;;;;;;;;10271101;28;20748;-75
2023/07/06 22:43:16;;;;;;;0.70;0.70;;;;;;;;;;10284353;28;20227;-75
2023/07/06 22:48:18;;;;;;;1.45;0.80;;;;;;;;;;10290294;28;20709;-76
2023/07/06 22:53:19;;;;;;;1.85;0.98;;;;;;;;;;10294952;28;20307;-75
2023/07/06 22:58:20;;;;;;;2.65;0.57;;;;;;;;;;10296797;28;20288;-75
2023/07/06 23:03:21;;;;;;;1.25;0.75;;;;;;;;;;10291668;28;20222;-75
2023/07/06 23:08:22;;;;;;;0.60;0.60;;;;;;;;;;10266874;28;20228;-75
2023/07/06 23:13:23;;;;;;;0.55;0.55;;;;;;;;;;10289480;28;20243;-75
2023/07/06 23:18:24;;;;;;;1.35;0.80;;;;;;;;;;10277281;28;20221;-75
2023/07/06 23:23:28;;;;;;;0.50;0.50;;;;;;;;;;10285078;28;20212;-74
2023/07/06 23:28:33;;;;;;;0.68;0.68;;;;;;;;;;10284001;28;20505;-74
2023/07/06 23:33:38;;;;;;;1.85;0.60;;;;;;;;;;10266368;28;20216;-74
2023/07/06 23:38:39;;;;;;;0.47;0.47;;;;;;;;;;10288611;28;20217;-75
2023/07/06 23:43:40;;;;;;;1.17;0.75;;;;;;;;;;10301642;28;20796;-75
2023/07/06 23:48:41;;;;;;;0.88;0.88;;;;;;;;;;10281098;28;20209;-73
2023/07/06 23:53:42;;;;;;;0.70;0.70;;;;;;;;;;10290568;28;20233;-73
2023/07/06 23:58:43;;;;;;;1.23;1.13;;;;;;;;;;10291222;28;20700;-74
